createdAt,value
2019-02-05T00:02:00.934Z,6.43
2019-02-05T00:04:30.352Z,6.73
2019-02-05T00:07:02.629Z,5.87
2019-02-05T00:09:32.111Z,6.07
2019-02-05T00:12:01.779Z,5.90
2019-02-05T00:14:31.102Z,6.13
2019-02-05T00:17:00.687Z,5.80
2019-02-05T00:19:30.188Z,6.63
2019-02-05T00:21:59.705Z,5.97
2019-02-05T00:24:29.332Z,6.17
2019-02-05T00:26:59.430Z,6.47
2019-02-05T00:29:28.710Z,5.67
2019-02-05T00:32:01.374Z,5.23
2019-02-05T00:34:30.876Z,6.47
2019-02-05T00:37:00.398Z,5.67
2019-02-05T00:39:30.088Z,5.60
2019-02-05T00:42:00.062Z,6.23
2019-02-05T00:44:29.626Z,5.60
2019-02-05T00:46:58.924Z,5.47
2019-02-05T00:49:28.354Z,5.73
2019-02-05T00:51:57.426Z,4.90
2019-02-05T00:54:26.988Z,5.50
2019-02-05T00:56:58.680Z,5.90
2019-02-05T00:59:27.919Z,6.37
2019-02-05T01:01:57.487Z,5.60
2019-02-05T01:04:27.339Z,6.40
2019-02-05T01:06:56.926Z,6.80
2019-02-05T01:09:26.370Z,6.20
2019-02-05T01:11:56.048Z,5.37
2019-02-05T01:14:25.475Z,6.57
2019-02-05T01:16:54.795Z,5.93
2019-02-05T01:19:25.387Z,5.70
2019-02-05T01:21:57.590Z,6.40
2019-02-05T01:24:27.457Z,5.77
2019-02-05T01:26:57.215Z,5.40
2019-02-05T01:29:26.747Z,5.20
2019-02-05T01:31:56.565Z,5.53
2019-02-05T01:34:25.779Z,5.60
2019-02-05T01:36:55.046Z,5.93
2019-02-05T01:39:24.275Z,5.17
2019-02-05T01:41:53.699Z,5.70
2019-02-05T01:44:23.817Z,5.30
2019-02-05T01:46:53.456Z,6.07
2019-02-05T01:49:22.599Z,5.20
2019-02-05T01:51:52.100Z,5.20
2019-02-05T01:54:21.461Z,4.93
2019-02-05T01:56:51.640Z,5.87
2019-02-05T01:59:24.294Z,5.77
2019-02-05T02:01:53.608Z,5.70
2019-02-05T02:04:22.906Z,5.33
2019-02-05T02:06:52.464Z,5.77
2019-02-05T02:09:21.666Z,5.20
2019-02-05T02:11:50.746Z,5.30
2019-02-05T02:14:20.356Z,4.70
2019-02-05T02:16:49.807Z,4.80
2019-02-05T02:19:19.308Z,5.63
2019-02-05T02:21:48.877Z,4.53
2019-02-05T02:24:18.687Z,4.50
2019-02-05T02:26:51.985Z,4.20
2019-02-05T02:29:19.022Z,4.47
2019-02-05T02:31:48.426Z,4.70
2019-02-05T02:34:17.755Z,5.00
2019-02-05T02:36:47.716Z,4.87
2019-02-05T02:39:17.487Z,5.03
2019-02-05T02:41:47.617Z,4.73
2019-02-05T02:44:16.772Z,4.93
2019-02-05T02:46:46.093Z,5.40
2019-02-05T02:49:16.293Z,5.10
2019-02-05T02:51:46.068Z,7.07
2019-02-05T02:54:15.365Z,6.93
2019-02-05T02:56:44.673Z,5.20
2019-02-05T02:59:14.097Z,5.77
2019-02-05T03:01:43.586Z,5.37
2019-02-05T03:04:13.100Z,5.30
2019-02-05T03:06:43.046Z,5.40
2019-02-05T03:09:12.273Z,5.37
2019-02-05T03:11:41.799Z,4.97
2019-02-05T03:14:11.789Z,5.37
2019-02-05T03:16:40.912Z,5.30
2019-02-05T03:19:10.108Z,4.97
2019-02-05T03:21:39.548Z,4.87
2019-02-05T03:24:08.732Z,4.87
2019-02-05T03:26:38.301Z,5.17
2019-02-05T03:29:07.764Z,5.30
2019-02-05T03:31:39.433Z,5.63
2019-02-05T03:34:08.686Z,6.00
2019-02-05T03:36:38.081Z,5.43
2019-02-05T03:39:08.012Z,6.13
2019-02-05T03:41:37.608Z,5.77
2019-02-05T03:44:07.580Z,5.70
2019-02-05T03:46:36.807Z,6.03
2019-02-05T03:49:06.518Z,6.37
2019-02-05T03:52:00.699Z,6.97
2019-02-05T03:54:52.104Z,6.00
2019-02-05T03:57:32.101Z,6.23
2019-02-05T04:00:26.539Z,6.30
2019-02-05T04:03:17.463Z,6.07
2019-02-05T04:06:09.006Z,7.10
2019-02-05T04:08:46.218Z,5.90
2019-02-05T04:11:31.931Z,6.50
2019-02-05T04:14:19.344Z,5.83
2019-02-05T04:17:14.123Z,6.93
2019-02-05T04:19:50.859Z,6.23
2019-02-05T04:22:24.891Z,5.93
2019-02-05T04:25:02.356Z,7.10
2019-02-05T04:28:01.547Z,6.33
2019-02-05T04:30:49.899Z,6.93
2019-02-05T04:33:26.037Z,6.73
2019-02-05T04:36:00.646Z,6.80
2019-02-05T04:38:48.932Z,8.20
2019-02-05T04:41:44.129Z,6.60
2019-02-05T04:44:26.855Z,7.57
2019-02-05T04:47:20.790Z,7.43
2019-02-05T04:50:18.268Z,7.73
2019-02-05T04:52:54.925Z,7.90
2019-02-05T04:55:31.306Z,8.50
2019-02-05T04:58:04.222Z,8.30
2019-02-05T05:00:40.774Z,8.10
2019-02-05T05:03:23.952Z,9.40
2019-02-05T05:06:12.220Z,8.53
2019-02-05T05:08:49.729Z,8.27
2019-02-05T05:11:19.066Z,7.83
2019-02-05T05:13:48.739Z,9.20
2019-02-05T05:16:18.081Z,8.70
2019-02-05T05:18:47.736Z,8.97
2019-02-05T05:21:17.015Z,10.40
2019-02-05T05:23:46.792Z,9.77
2019-02-05T05:26:16.565Z,10.00
2019-02-05T05:28:45.990Z,9.87
2019-02-05T05:31:15.414Z,9.73
2019-02-05T05:33:44.670Z,9.30
2019-02-05T05:36:13.822Z,16.23
2019-02-05T05:38:43.299Z,11.13
2019-02-05T05:41:12.794Z,11.77
2019-02-05T05:43:43.909Z,10.43
2019-02-05T05:46:13.404Z,10.30
2019-02-05T05:48:42.591Z,9.40
2019-02-05T05:51:12.011Z,10.23
2019-02-05T05:53:41.706Z,11.30
2019-02-05T05:56:11.206Z,10.20
2019-02-05T05:58:40.482Z,11.90
2019-02-05T06:01:10.009Z,12.73
2019-02-05T06:03:39.328Z,10.50
2019-02-05T06:06:08.503Z,10.00
2019-02-05T06:08:37.806Z,9.20
2019-02-05T06:11:07.042Z,9.77
2019-02-05T06:13:36.790Z,9.07
2019-02-05T06:16:06.475Z,9.93
2019-02-05T06:18:36.018Z,9.33
2019-02-05T06:21:05.279Z,10.13
2019-02-05T06:23:35.416Z,10.23
2019-02-05T06:26:05.252Z,9.90
2019-02-05T06:28:35.883Z,9.87
2019-02-05T06:31:04.904Z,11.13
2019-02-05T06:33:34.041Z,10.07
2019-02-05T06:36:03.393Z,10.20
2019-02-05T06:38:35.767Z,11.77
2019-02-05T06:41:04.979Z,10.97
2019-02-05T06:43:34.215Z,11.87
2019-02-05T06:46:03.426Z,11.27
2019-02-05T06:48:32.637Z,11.27
2019-02-05T06:51:01.823Z,10.40
2019-02-05T06:53:31.867Z,10.50
2019-02-05T06:56:01.259Z,10.33
2019-02-05T06:58:30.417Z,9.07
2019-02-05T07:01:00.413Z,9.83
2019-02-05T07:03:30.063Z,10.40
2019-02-05T07:05:59.469Z,11.13
2019-02-05T07:08:28.758Z,10.70
2019-02-05T07:10:57.929Z,10.13
2019-02-05T07:13:27.518Z,11.33
2019-02-05T07:15:57.346Z,11.17
2019-02-05T07:18:26.874Z,11.30
2019-02-05T07:20:56.387Z,10.67
2019-02-05T07:23:25.571Z,11.20
2019-02-05T07:25:55.260Z,11.67
2019-02-05T07:28:24.583Z,12.10
2019-02-05T07:30:54.625Z,11.17
2019-02-05T07:33:24.149Z,12.30
2019-02-05T07:35:53.791Z,13.17
2019-02-05T07:38:23.136Z,13.23
2019-02-05T07:40:52.654Z,13.13
2019-02-05T07:43:22.100Z,12.77
2019-02-05T07:45:51.634Z,12.70
2019-02-05T07:48:21.023Z,13.37
2019-02-05T07:50:50.468Z,12.60
2019-02-05T07:53:19.910Z,11.33
2019-02-05T07:55:49.560Z,13.27
2019-02-05T07:58:19.043Z,12.80
2019-02-05T08:00:48.377Z,12.73
2019-02-05T08:03:17.844Z,12.67
2019-02-05T08:05:47.385Z,11.67
2019-02-05T08:08:16.642Z,11.73
2019-02-05T08:10:46.710Z,12.77
2019-02-05T08:13:16.033Z,12.87
2019-02-05T08:15:45.355Z,12.63
2019-02-05T08:18:15.291Z,12.43
2019-02-05T08:20:44.556Z,12.93
2019-02-05T08:23:13.767Z,11.67
2019-02-05T08:25:43.597Z,12.20
2019-02-05T08:28:12.981Z,12.53
2019-02-05T08:30:43.633Z,12.80
2019-02-05T08:33:13.426Z,12.27
2019-02-05T08:35:43.149Z,12.80
2019-02-05T08:38:12.509Z,12.30
2019-02-05T08:40:41.779Z,12.50
2019-02-05T08:43:11.019Z,12.00
2019-02-05T08:45:40.281Z,12.77
2019-02-05T08:48:09.989Z,12.63
2019-02-05T08:50:39.325Z,11.97
2019-02-05T08:53:08.812Z,14.80
2019-02-05T08:55:38.577Z,12.30
2019-02-05T08:58:08.901Z,13.60
2019-02-05T09:00:38.663Z,13.17
2019-02-05T09:03:08.910Z,13.00
2019-02-05T09:05:38.392Z,18.30
2019-02-05T09:08:07.853Z,13.63
2019-02-05T09:10:37.310Z,14.07
2019-02-05T09:13:07.604Z,13.70
2019-02-05T09:15:37.257Z,13.30
2019-02-05T09:18:07.091Z,12.63
2019-02-05T09:20:36.355Z,12.30
2019-02-05T09:23:06.033Z,13.37
2019-02-05T09:25:35.781Z,11.47
2019-02-05T09:28:05.450Z,11.53
2019-02-05T09:30:35.418Z,12.47
2019-02-05T09:33:06.267Z,12.27
2019-02-05T09:35:35.807Z,11.80
2019-02-05T09:38:05.472Z,12.27
2019-02-05T09:40:35.290Z,13.50
2019-02-05T09:43:04.761Z,13.00
2019-02-05T09:45:34.484Z,14.13
2019-02-05T09:48:03.851Z,14.00
2019-02-05T09:50:44.236Z,13.83
2019-02-05T09:53:04.306Z,14.23
2019-02-05T09:55:36.031Z,14.43
2019-02-05T09:58:04.922Z,13.33
2019-02-05T10:00:35.759Z,14.73
2019-02-05T10:03:05.290Z,14.10
2019-02-05T10:05:34.698Z,13.10
2019-02-05T10:08:04.402Z,12.37
2019-02-05T10:10:33.907Z,13.67
2019-02-05T10:13:03.308Z,13.27
2019-02-05T10:15:33.758Z,13.73
2019-02-05T10:18:03.343Z,13.37
2019-02-05T10:20:32.809Z,13.77
2019-02-05T10:23:03.968Z,13.93
2019-02-05T10:25:33.476Z,13.97
2019-02-05T10:28:02.850Z,13.97
2019-02-05T10:30:33.390Z,13.00
2019-02-05T10:33:03.516Z,14.23
2019-02-05T10:35:33.343Z,13.87
2019-02-05T10:38:03.035Z,15.40
2019-02-05T10:40:33.265Z,15.00
2019-02-05T10:43:02.678Z,14.90
2019-02-05T10:45:32.487Z,15.23
2019-02-05T10:48:02.539Z,14.30
2019-02-05T10:50:31.752Z,15.03
2019-02-05T10:53:00.991Z,14.43
2019-02-05T10:55:30.555Z,14.03
2019-02-05T10:57:59.884Z,14.03
2019-02-05T11:00:30.113Z,14.83
2019-02-05T11:03:00.403Z,14.03
2019-02-05T11:05:30.244Z,15.80
2019-02-05T11:08:00.062Z,15.43
2019-02-05T11:10:29.486Z,15.77
2019-02-05T11:12:58.865Z,15.87
2019-02-05T11:15:32.248Z,15.77
2019-02-05T11:18:01.766Z,15.67
2019-02-05T11:20:33.517Z,15.10
2019-02-05T11:23:03.332Z,14.77
2019-02-05T11:25:32.805Z,16.50
2019-02-05T11:28:02.442Z,15.90
2019-02-05T11:30:33.537Z,16.27
2019-02-05T11:33:03.070Z,17.97
2019-02-05T11:35:32.792Z,15.83
2019-02-05T11:38:02.151Z,18.10
2019-02-05T11:40:32.479Z,17.77
2019-02-05T11:43:02.580Z,17.47
2019-02-05T11:45:32.669Z,18.33
2019-02-05T11:48:02.767Z,18.80
2019-02-05T11:50:32.503Z,19.00
2019-02-05T11:53:02.246Z,19.60
2019-02-05T11:55:32.071Z,20.13
2019-02-05T11:58:01.371Z,21.07
2019-02-05T12:00:56.183Z,20.87
2019-02-05T12:03:25.899Z,20.10
2019-02-05T12:05:55.704Z,20.53
2019-02-05T12:08:25.013Z,20.43
2019-02-05T12:10:54.487Z,19.93
2019-02-05T12:13:23.646Z,20.10
2019-02-05T12:15:53.016Z,21.17
2019-02-05T12:18:22.737Z,19.93
2019-02-05T12:20:52.052Z,21.37
2019-02-05T12:23:21.607Z,22.70
2019-02-05T12:25:51.122Z,22.50
2019-02-05T12:28:20.520Z,22.97
2019-02-05T12:30:49.827Z,23.00
2019-02-05T12:33:20.091Z,22.13
2019-02-05T12:35:50.163Z,22.73
2019-02-05T12:38:19.589Z,22.90
2019-02-05T12:40:49.066Z,23.17
2019-02-05T12:43:18.441Z,22.93
2019-02-05T12:45:48.075Z,22.43
2019-02-05T12:48:17.894Z,24.50
2019-02-05T12:50:47.747Z,22.33
2019-02-05T12:53:17.816Z,23.03
2019-02-05T12:55:47.545Z,21.50
2019-02-05T12:58:17.274Z,22.13
2019-02-05T13:00:56.569Z,19.73
2019-02-05T13:03:18.945Z,19.27
2019-02-05T13:05:48.661Z,19.00
2019-02-05T13:08:18.002Z,18.20
2019-02-05T13:10:48.428Z,16.37
2019-02-05T13:13:18.508Z,18.57
2019-02-05T13:15:48.597Z,18.87
2019-02-05T13:18:19.329Z,17.87
2019-02-05T13:20:48.631Z,18.93
2019-02-05T13:23:18.584Z,18.90
2019-02-05T13:25:48.084Z,17.30
2019-02-05T13:28:17.324Z,16.63
2019-02-05T13:30:46.825Z,17.40
2019-02-05T13:33:17.429Z,20.20
2019-02-05T13:35:46.676Z,19.13
2019-02-05T13:38:16.562Z,16.53
2019-02-05T13:40:46.733Z,17.23
2019-02-05T13:43:16.259Z,18.03
2019-02-05T13:45:46.562Z,18.63
2019-02-05T13:48:15.964Z,17.53
2019-02-05T13:50:45.635Z,16.80
2019-02-05T13:53:15.133Z,17.10
2019-02-05T13:55:45.155Z,17.77
2019-02-05T13:58:15.806Z,17.60
2019-02-05T14:00:48.970Z,17.87
2019-02-05T14:03:18.396Z,17.73
2019-02-05T14:05:48.043Z,17.70
2019-02-05T14:08:17.658Z,17.47
2019-02-05T14:10:47.847Z,19.37
2019-02-05T14:13:17.615Z,18.30
2019-02-05T14:15:48.667Z,18.93
2019-02-05T14:18:17.875Z,18.40
2019-02-05T14:20:47.092Z,18.23
2019-02-05T14:23:16.875Z,18.80
2019-02-05T14:25:46.570Z,17.57
2019-02-05T14:28:16.459Z,19.07
2019-02-05T14:30:56.341Z,19.77
2019-02-05T14:33:26.416Z,18.67
2019-02-05T14:35:55.931Z,18.97
2019-02-05T14:38:25.450Z,18.17
2019-02-05T14:40:54.652Z,19.57
2019-02-05T14:43:24.737Z,20.83
2019-02-05T14:45:54.360Z,19.73
2019-02-05T14:48:23.977Z,20.43
2019-02-05T14:50:53.495Z,21.07
2019-02-05T14:53:22.808Z,19.20
2019-02-05T14:55:52.172Z,20.00
2019-02-05T14:58:21.514Z,19.50
2019-02-05T15:00:54.268Z,20.27
2019-02-05T15:03:23.862Z,20.03
2019-02-05T15:05:53.242Z,19.57
2019-02-05T15:08:22.987Z,20.63
2019-02-05T15:10:52.131Z,19.63
2019-02-05T15:13:21.450Z,19.37
2019-02-05T15:15:51.216Z,19.10
2019-02-05T15:18:22.523Z,19.43
2019-02-05T15:20:53.093Z,18.40
2019-02-05T15:23:22.540Z,17.97
2019-02-05T15:25:52.446Z,18.93
2019-02-05T15:28:21.981Z,18.67
2019-02-05T15:30:51.669Z,16.53
2019-02-05T15:33:55.526Z,18.10
2019-02-05T15:36:32.804Z,17.97
2019-02-05T15:39:02.507Z,18.30
2019-02-05T15:41:32.234Z,17.43
2019-02-05T15:44:01.802Z,17.13
2019-02-05T15:46:32.010Z,17.83
2019-02-05T15:49:01.557Z,17.10
2019-02-05T15:51:31.209Z,16.90
2019-02-05T15:54:00.845Z,16.67
2019-02-05T15:56:30.163Z,16.83
2019-02-05T15:58:59.825Z,17.13
2019-02-05T16:01:29.364Z,17.50
2019-02-05T16:03:58.870Z,19.07
2019-02-05T16:06:28.452Z,16.40
2019-02-05T16:08:57.580Z,17.53
2019-02-05T16:11:27.018Z,17.27
2019-02-05T16:13:56.332Z,17.80
2019-02-05T16:16:25.922Z,17.47
2019-02-05T16:18:55.439Z,16.67
2019-02-05T16:21:25.059Z,17.77
2019-02-05T16:23:55.217Z,17.60
2019-02-05T16:26:26.210Z,17.07
2019-02-05T16:28:55.724Z,19.43
2019-02-05T16:31:27.876Z,18.37
2019-02-05T16:33:57.091Z,21.53
2019-02-05T16:36:26.809Z,19.47
2019-02-05T16:38:56.385Z,19.27
2019-02-05T16:41:26.411Z,18.77
2019-02-05T16:43:55.951Z,19.60
2019-02-05T16:46:25.710Z,20.60
2019-02-05T16:48:55.233Z,17.80
2019-02-05T16:51:24.815Z,20.80
2019-02-05T16:53:54.298Z,19.20
2019-02-05T16:56:23.968Z,17.63
2019-02-05T16:58:53.869Z,18.20
2019-02-05T17:01:23.233Z,18.83
2019-02-05T17:03:52.977Z,20.63
2019-02-05T17:06:22.581Z,21.50
2019-02-05T17:08:52.330Z,19.30
2019-02-05T17:11:22.320Z,20.27
2019-02-05T17:13:54.983Z,19.20
2019-02-05T17:16:24.374Z,20.83
2019-02-05T17:18:54.332Z,19.33
2019-02-05T17:21:24.019Z,20.67
2019-02-05T17:23:53.508Z,20.27
2019-02-05T17:26:23.087Z,20.87
2019-02-05T17:28:52.912Z,19.40
2019-02-05T17:31:22.888Z,20.87
2019-02-05T17:33:52.824Z,24.00
2019-02-05T17:36:22.288Z,19.67
2019-02-05T17:38:51.859Z,20.67
2019-02-05T17:41:21.090Z,21.17
2019-02-05T17:43:50.763Z,20.53
2019-02-05T17:46:20.380Z,20.60
2019-02-05T17:48:49.775Z,21.63
2019-02-05T17:51:19.174Z,20.87
2019-02-05T17:53:48.578Z,20.60
2019-02-05T17:56:18.164Z,22.13
2019-02-05T17:58:47.818Z,23.90
2019-02-05T18:01:18.850Z,21.77
2019-02-05T18:03:48.529Z,22.53
2019-02-05T18:06:18.095Z,21.80
2019-02-05T18:08:47.502Z,21.00
2019-02-05T18:11:16.877Z,23.53
2019-02-05T18:13:46.548Z,23.03
2019-02-05T18:16:19.290Z,21.90
2019-02-05T18:18:48.901Z,21.93
2019-02-05T18:21:18.392Z,21.37
2019-02-05T18:23:47.755Z,23.20
2019-02-05T18:26:20.417Z,21.93
2019-02-05T18:28:49.907Z,22.20
2019-02-05T18:31:19.128Z,29.73
2019-02-05T18:33:49.261Z,29.30
2019-02-05T18:36:18.509Z,26.53
2019-02-05T18:38:47.791Z,26.20
2019-02-05T18:41:17.740Z,25.10
2019-02-05T18:43:47.155Z,24.87
2019-02-05T18:46:16.747Z,24.60
2019-02-05T18:48:46.056Z,24.63
2019-02-05T18:51:16.499Z,24.37
2019-02-05T18:53:45.667Z,23.30
2019-02-05T18:56:15.327Z,22.50
2019-02-05T18:58:45.213Z,21.73
2019-02-05T19:01:14.568Z,21.90
2019-02-05T19:03:44.307Z,22.43
2019-02-05T19:06:13.711Z,22.30
2019-02-05T19:08:43.400Z,22.57
2019-02-05T19:11:13.125Z,23.47
2019-02-05T19:13:42.531Z,27.47
2019-02-05T19:16:11.980Z,28.17
2019-02-05T19:18:41.843Z,30.50
2019-02-05T19:21:11.652Z,29.97
2019-02-05T19:23:41.267Z,29.90
2019-02-05T19:26:24.366Z,29.63
2019-02-05T19:28:53.951Z,25.53
2019-02-05T19:31:34.864Z,27.67
2019-02-05T19:34:05.084Z,31.17
2019-02-05T19:36:34.669Z,28.03
2019-02-05T19:39:05.635Z,26.47
2019-02-05T19:41:35.316Z,26.03
2019-02-05T19:44:04.806Z,27.67
2019-02-05T19:46:51.645Z,28.00
2019-02-05T19:49:36.287Z,26.27
2019-02-05T19:52:05.928Z,26.03
2019-02-05T19:54:35.622Z,25.27
2019-02-05T19:57:05.326Z,24.30
2019-02-05T19:59:34.825Z,24.67
2019-02-05T20:02:05.455Z,26.03
2019-02-05T20:04:34.981Z,25.83
2019-02-05T20:07:04.295Z,26.83
2019-02-05T20:09:33.744Z,27.27
2019-02-05T20:12:02.924Z,25.87
2019-02-05T20:14:32.358Z,26.20
2019-02-05T20:17:02.268Z,25.50
2019-02-05T20:19:31.865Z,25.40
2019-02-05T20:22:01.336Z,32.57
2019-02-05T20:24:30.991Z,29.97
2019-02-05T20:27:00.599Z,31.63
2019-02-05T20:29:29.881Z,28.97
2019-02-05T20:31:59.315Z,31.00
2019-02-05T20:34:29.180Z,27.87
2019-02-05T20:36:58.716Z,28.97
2019-02-05T20:39:28.634Z,27.63
2019-02-05T20:41:58.058Z,28.53
2019-02-05T20:44:27.518Z,25.40
2019-02-05T20:46:56.847Z,26.20
2019-02-05T20:49:28.972Z,23.70
2019-02-05T20:51:58.683Z,24.23
2019-02-05T20:54:28.113Z,22.60
2019-02-05T20:56:57.399Z,21.77
2019-02-05T20:59:26.566Z,21.87
2019-02-05T21:01:56.204Z,21.87
2019-02-05T21:04:25.761Z,21.13
2019-02-05T21:06:55.338Z,21.63
2019-02-05T21:09:24.768Z,18.87
2019-02-05T21:11:54.143Z,19.83
2019-02-05T21:14:23.437Z,19.10
2019-02-05T21:16:52.666Z,19.03
2019-02-05T21:19:22.438Z,20.20
2019-02-05T21:21:53.321Z,21.20
2019-02-05T21:24:24.051Z,20.73
2019-02-05T21:26:55.871Z,23.90
2019-02-05T21:29:28.329Z,18.33
2019-02-05T21:31:58.146Z,24.70
2019-02-05T21:34:30.695Z,21.10
2019-02-05T21:37:00.075Z,20.20
2019-02-05T21:39:29.614Z,25.23
2019-02-05T21:41:59.148Z,21.33
2019-02-05T21:44:29.453Z,21.67
2019-02-05T21:46:58.952Z,24.93
2019-02-05T21:49:28.765Z,26.20
2019-02-05T21:51:58.841Z,25.57
2019-02-05T21:54:28.810Z,24.93
2019-02-05T21:56:58.078Z,27.20
2019-02-05T21:59:27.317Z,39.80
2019-02-05T22:01:58.543Z,36.67
2019-02-05T22:04:31.205Z,35.97
2019-02-05T22:07:01.078Z,31.17
2019-02-05T22:09:31.132Z,29.83
2019-02-05T22:12:04.012Z,28.27
2019-02-05T22:14:33.415Z,28.95
2019-02-05T22:17:02.830Z,26.63
2019-02-05T22:19:32.168Z,27.20
2019-02-05T22:22:01.539Z,24.53
2019-02-05T22:24:30.817Z,24.17
2019-02-05T22:27:00.904Z,22.33
2019-02-05T22:29:30.588Z,25.77
2019-02-05T22:32:00.112Z,26.85
2019-02-05T22:34:38.974Z,27.48
2019-02-05T22:37:03.500Z,23.10
2019-02-05T22:39:31.931Z,21.87
2019-02-05T22:42:01.448Z,21.07
2019-02-05T22:44:31.089Z,20.57
2019-02-05T22:47:02.130Z,21.20
2019-02-05T22:49:32.350Z,21.90
2019-02-05T22:52:02.440Z,22.25
2019-02-05T22:54:35.019Z,22.05
2019-02-05T22:57:04.626Z,23.07
2019-02-05T22:59:34.516Z,24.80
2019-02-05T23:02:04.584Z,27.13
2019-02-05T23:04:56.646Z,24.35
2019-02-05T23:07:27.331Z,23.25
2019-02-05T23:10:24.961Z,24.32
2019-02-05T23:12:56.834Z,24.80
2019-02-05T23:15:29.076Z,25.48
2019-02-05T23:17:58.496Z,25.52
2019-02-05T23:20:28.188Z,27.90
2019-02-05T23:22:58.292Z,29.98
2019-02-05T23:25:27.509Z,29.05
2019-02-05T23:27:57.103Z,29.40
2019-02-05T23:30:28.491Z,29.70
2019-02-05T23:32:59.283Z,32.83
2019-02-05T23:35:32.555Z,27.73
2019-02-05T23:38:00.839Z,28.70
2019-02-05T23:40:30.697Z,30.05
2019-02-05T23:43:05.626Z,28.57
2019-02-05T23:45:35.731Z,27.42
2019-02-05T23:48:06.152Z,26.05
2019-02-05T23:50:36.057Z,25.62
2019-02-05T23:53:05.502Z,27.17
2019-02-05T23:55:34.965Z,26.40
2019-02-05T23:58:04.873Z,26.50
